createdAt,value
2023-05-25T14:06:46.955Z,40.72
2023-05-25T14:08:52.465Z,40.64
2023-05-25T14:10:57.991Z,39.78
2023-05-25T14:13:03.226Z,40.09
2023-05-25T14:15:08.540Z,40.48
2023-05-25T14:17:13.999Z,40.49
2023-05-25T14:19:19.290Z,39.76
2023-05-25T14:21:24.637Z,39.99
2023-05-25T14:23:30.019Z,40.04
2023-05-25T14:25:35.458Z,40.35
2023-05-25T14:27:40.787Z,40.18
2023-05-25T14:29:46.246Z,40.65
2023-05-25T14:31:51.717Z,40.78
2023-05-25T14:33:56.969Z,41.11
2023-05-25T14:36:02.363Z,40.91
2023-05-25T14:38:07.791Z,40.45
2023-05-25T14:40:13.033Z,40.42
2023-05-25T14:42:18.566Z,40.72
2023-05-25T14:44:23.907Z,40.66
2023-05-25T14:46:29.624Z,40.18
2023-05-25T14:48:35.076Z,40.56
2023-05-25T14:50:40.532Z,39.65
2023-05-25T14:52:46.004Z,39.28
2023-05-25T14:54:51.407Z,39.34
2023-05-25T14:56:56.952Z,39.76
2023-05-25T14:59:02.419Z,39.74
2023-05-25T15:01:07.705Z,39.75
2023-05-25T15:03:13.401Z,39.88
2023-05-25T15:05:18.735Z,40.07
2023-05-25T15:07:24.078Z,40.03
2023-05-25T15:09:29.590Z,40.01
2023-05-25T15:11:34.930Z,40.12
2023-05-25T15:13:40.243Z,40.1
2023-05-25T15:15:46.401Z,40.13
2023-05-25T15:17:52.106Z,40.17
2023-05-25T15:19:57.713Z,40.11
2023-05-25T15:22:03.260Z,40.18
2023-05-25T15:24:08.607Z,40.04
2023-05-25T15:26:14.039Z,40.13
2023-05-25T15:28:19.308Z,40.23
2023-05-25T15:30:24.524Z,40.05
2023-05-25T15:32:29.860Z,40.09
2023-05-25T15:34:35.109Z,40.09
2023-05-25T15:36:40.523Z,39.96
2023-05-25T15:38:46.022Z,39.92
2023-05-25T15:40:51.552Z,40.19
2023-05-25T15:42:56.850Z,39.98
2023-05-25T15:45:02.291Z,40.2
2023-05-25T15:47:07.620Z,40.09
2023-05-25T15:49:13.179Z,40.03
2023-05-25T15:51:18.515Z,40.43
2023-05-25T15:53:23.956Z,39.9
2023-05-25T15:55:29.213Z,39.99
2023-05-25T15:57:34.419Z,40.29
2023-05-25T15:59:39.653Z,40
2023-05-25T16:01:45.074Z,40.17
2023-05-25T16:03:50.577Z,40.03
2023-05-25T16:05:56.081Z,40.16
2023-05-25T16:08:01.413Z,40.31
2023-05-25T16:10:06.766Z,40.13
2023-05-25T16:12:11.979Z,40.09
2023-05-25T16:14:17.334Z,39.84
2023-05-25T16:16:22.693Z,39.89
2023-05-25T16:18:27.982Z,40.12
2023-05-25T16:20:33.575Z,40.11
2023-05-25T16:22:38.886Z,40.43
2023-05-25T16:24:44.113Z,40.88
2023-05-25T16:26:49.437Z,40.62
2023-05-25T16:28:54.704Z,40.96
2023-05-25T16:30:59.916Z,40.89
2023-05-25T16:33:05.427Z,41.01
2023-05-25T16:35:10.977Z,40.59
2023-05-25T16:37:16.278Z,40.69
2023-05-25T16:39:21.522Z,40.58
2023-05-25T16:41:26.714Z,40.82
2023-05-25T16:43:31.917Z,40.5
2023-05-25T16:45:37.118Z,40.65
2023-05-25T16:47:42.587Z,40.47
2023-05-25T16:49:47.760Z,40.59
2023-05-25T16:51:52.856Z,40.4
2023-05-25T16:53:58.231Z,40.41
2023-05-25T16:56:03.569Z,39.14
2023-05-25T16:58:09.004Z,38.9
2023-05-25T17:00:14.448Z,38.55
2023-05-25T17:02:19.928Z,38.35
2023-05-25T17:04:25.322Z,38.45
2023-05-25T17:06:30.607Z,38.61
2023-05-25T17:08:35.857Z,38.59
2023-05-25T17:10:41.129Z,38.59
2023-05-25T17:12:46.572Z,38.67
2023-05-25T17:14:51.909Z,38.63
2023-05-25T17:16:57.249Z,38.65
2023-05-25T17:19:02.350Z,38.64
2023-05-25T17:21:07.616Z,38.91
2023-05-25T17:23:12.821Z,38.88
2023-05-25T17:25:18.097Z,38.84
2023-05-25T17:27:23.236Z,38.98
2023-05-25T17:29:28.613Z,39.04
2023-05-25T17:31:34.015Z,39.18
2023-05-25T17:33:39.436Z,39.15
2023-05-25T17:35:45.199Z,39.11
2023-05-25T17:37:50.731Z,39.15
2023-05-25T17:39:56.065Z,39.17
2023-05-25T17:42:01.394Z,39.29
2023-05-25T17:44:06.676Z,39.21
2023-05-25T17:46:12.166Z,39.29
2023-05-25T17:48:17.536Z,39.26
2023-05-25T17:50:22.801Z,39.37
2023-05-25T17:52:28.204Z,39.4
2023-05-25T17:54:33.449Z,39.46
2023-05-25T17:56:38.651Z,39.44
2023-05-25T17:58:43.913Z,39.41
2023-05-25T18:00:49.334Z,39.6
2023-05-25T18:02:55.122Z,39.48
2023-05-25T18:05:00.550Z,39.56
2023-05-25T18:07:05.932Z,39.82
2023-05-25T18:09:11.423Z,40.23
2023-05-25T18:11:16.751Z,39.76
2023-05-25T18:13:22.264Z,39.71
2023-05-25T18:15:27.732Z,39.73
2023-05-25T18:17:33.176Z,39.67
2023-05-25T18:19:38.442Z,39.67
2023-05-25T18:21:43.852Z,39.85
2023-05-25T18:23:49.197Z,39.94
2023-05-25T18:25:54.439Z,40.14
2023-05-25T18:27:59.765Z,40.22
2023-05-25T18:30:05.040Z,40.2
2023-05-25T18:32:10.349Z,40.08
2023-05-25T18:34:15.649Z,40.41
2023-05-25T18:36:21.236Z,40.61
2023-05-25T18:38:26.696Z,40.76
2023-05-25T18:40:31.872Z,40.9
2023-05-25T18:42:37.262Z,41.19
2023-05-25T18:44:42.530Z,41.16
2023-05-25T18:46:48.013Z,41.06
2023-05-25T18:48:53.459Z,41.09
2023-05-25T18:50:58.895Z,40.95
2023-05-25T18:53:04.330Z,41.08
2023-05-25T18:55:09.806Z,41.29
2023-05-25T18:57:15.320Z,41.22
2023-05-25T18:59:20.606Z,41.46
2023-05-25T19:01:26.216Z,41.59
2023-05-25T19:03:31.840Z,41.72
2023-05-25T19:05:37.381Z,41.63
2023-05-25T19:08:00.762Z,41.7
2023-05-25T19:10:05.990Z,41.78
2023-05-25T19:12:11.315Z,41.93
2023-05-25T19:14:16.760Z,42.05
2023-05-25T19:16:22.343Z,42.35
2023-05-25T19:18:27.760Z,42.57
2023-05-25T19:20:33.217Z,42.34
2023-05-25T19:22:38.620Z,42.42
2023-05-25T19:24:54.076Z,42.49
2023-05-25T19:27:03.035Z,42.58
2023-05-25T19:29:08.344Z,42.69
2023-05-25T19:31:13.715Z,42.98
2023-05-25T19:33:19.025Z,42.87
2023-05-25T19:35:24.363Z,43.12
2023-05-25T19:37:29.579Z,43.18
2023-05-25T19:39:35.044Z,43.34
2023-05-25T19:41:40.267Z,43.36
2023-05-25T19:43:45.529Z,43.27
2023-05-25T19:45:51.011Z,43.05
2023-05-25T19:47:56.729Z,42.89
2023-05-25T19:50:02.035Z,42.79
2023-05-25T19:52:07.283Z,43.17
2023-05-25T19:54:12.594Z,43.25
2023-05-25T19:56:17.913Z,43.25
2023-05-25T19:58:23.183Z,43.1
2023-05-25T20:00:29.972Z,43.04
2023-05-25T20:02:35.546Z,43.29
2023-05-25T20:04:43.483Z,43.19
2023-05-25T20:06:48.943Z,43.16
2023-05-25T20:08:54.120Z,43.25
2023-05-25T20:10:59.413Z,43.34
2023-05-25T20:13:04.850Z,43.22
2023-05-25T20:15:10.140Z,43.22
2023-05-25T20:17:15.500Z,42.68
2023-05-25T20:19:20.963Z,42.47
2023-05-25T20:21:26.193Z,42.82
2023-05-25T20:23:31.747Z,42.94
2023-05-25T20:25:36.998Z,42.16
2023-05-25T20:27:42.413Z,42.79
2023-05-25T20:29:47.649Z,42.13
2023-05-25T20:31:53.246Z,42.22
2023-05-25T20:33:58.640Z,41.9
2023-05-25T20:36:03.906Z,42.02
2023-05-25T20:38:09.418Z,41.94
2023-05-25T20:40:14.800Z,42.08
2023-05-25T20:42:20.116Z,41.95
2023-05-25T20:44:25.506Z,41.7
2023-05-25T20:46:30.951Z,42.26
2023-05-25T20:48:36.626Z,41.93
2023-05-25T20:50:41.870Z,41.91
2023-05-25T20:52:47.222Z,42.38
2023-05-25T20:54:52.638Z,42.26
2023-05-25T20:56:57.905Z,42.17
